Terminal Aerodrome Forecast
Issued by NWS Milwaukee/Sullivan, WI

Home | Current Version | Previous Version | Text Only | Print | Product List | Glossary On
Versions: 1 2 3 4 5 6 7 8 9 10 11 12 13 14 15 16 17 18 19 20 21 22 23 24 25 26 27 28 29 30 31 32 33 34 35 36 37 38 39 40 41 42 43 44 45 46 47 48 49 50
000
FTUS43 KMKX 170520
TAFMKE
TAF
KMKE 170520Z 1706/1812 14009KT P6SM -SHRA VCTS SCT030CB OVC050
     FM170700 17010KT P6SM VCSH SCT025 BKN035
     FM171200 20009KT P6SM OVC015
     FM171500 21010KT P6SM BKN050
     FM171800 23014KT P6SM VCSH BKN060
     FM172300 25015G23KT P6SM VCSH BKN040
     FM180000 25014G22KT P6SM BKN045 WS020/26035KT
     FM180600 27012G22KT P6SM BKN030
     FM181100 28011G20KT P6SM SCT025=

USA.gov is the U.S. government's official web portal to all federal, state and local government web resources and services.